createdAt,value
2022-11-17T00:00:44.020Z,18.33
2022-11-17T00:03:16.042Z,17.13
2022-11-17T00:05:44.564Z,17.65
2022-11-17T00:08:12.947Z,18.40
2022-11-17T00:10:41.303Z,17.58
2022-11-17T00:13:28.609Z,17.65
2022-11-17T00:15:58.374Z,16.05
2022-11-17T00:18:43.848Z,15.60
2022-11-17T00:21:23.989Z,14.52
2022-11-17T00:23:52.543Z,13.77
2022-11-17T00:26:22.246Z,12.20
2022-11-17T00:28:53.787Z,12.57
2022-11-17T00:34:12.551Z,10.38
2022-11-17T00:36:43.900Z,10.40
2022-11-17T00:41:41.330Z,9.85
2022-11-17T00:44:09.748Z,10.65
2022-11-17T00:46:39.925Z,9.73
2022-11-17T00:49:09.393Z,9.77
2022-11-17T00:51:38.588Z,10.48
2022-11-17T00:54:08.724Z,10.68
2022-11-17T00:56:37.181Z,9.73
2022-11-17T00:59:05.797Z,10.25
2022-11-17T01:01:34.117Z,10.50
2022-11-17T01:04:04.750Z,9.77
2022-11-17T01:06:35.049Z,10.33
2022-11-17T01:09:05.309Z,10.25
2022-11-17T01:11:33.463Z,9.75
2022-11-17T01:14:02.945Z,10.98
2022-11-17T01:16:32.692Z,9.40
2022-11-17T01:19:02.227Z,10.88
2022-11-17T01:21:32.904Z,9.68
2022-11-17T01:24:02.723Z,9.90
2022-11-17T01:26:32.803Z,9.27
2022-11-17T01:29:01.487Z,10.05
2022-11-17T01:31:31.909Z,9.45
2022-11-17T01:34:00.247Z,9.57
2022-11-17T01:36:30.551Z,10.02
2022-11-17T01:39:00.175Z,9.65
2022-11-17T01:41:29.972Z,10.30
2022-11-17T01:43:59.761Z,9.63
2022-11-17T01:46:33.760Z,10.25
2022-11-17T01:49:06.563Z,9.52
2022-11-17T01:51:39.701Z,9.32
2022-11-17T01:54:12.564Z,11.93
2022-11-17T01:56:45.232Z,9.70
2022-11-17T01:59:22.250Z,9.93
2022-11-17T02:01:56.782Z,9.73
2022-11-17T02:04:27.478Z,9.27
2022-11-17T02:07:01.987Z,10.27
2022-11-17T02:09:32.962Z,10.30
2022-11-17T02:12:01.218Z,10.85
2022-11-17T02:14:30.007Z,11.50
2022-11-17T02:17:03.034Z,10.40
2022-11-17T02:19:40.391Z,10.27
2022-11-17T02:22:34.953Z,10.45
2022-11-17T02:25:31.050Z,11.10
2022-11-17T02:28:06.582Z,11.93
2022-11-17T02:30:42.737Z,11.50
2022-11-17T02:33:22.199Z,11.20
2022-11-17T02:35:57.197Z,12.15
2022-11-17T02:38:36.642Z,11.15
2022-11-17T02:41:12.479Z,11.73
2022-11-17T02:44:04.070Z,11.05
2022-11-17T02:46:39.016Z,11.55
2022-11-17T02:49:11.433Z,12.30
2022-11-17T02:51:42.209Z,12.90
2022-11-17T02:54:11.368Z,12.65
2022-11-17T02:56:42.961Z,13.07
2022-11-17T03:02:19.923Z,12.90
2022-11-17T03:05:00.715Z,13.48
2022-11-17T03:07:52.491Z,12.50
2022-11-17T03:12:56.782Z,13.70
2022-11-17T03:15:35.137Z,14.95
2022-11-17T03:18:10.622Z,14.88
2022-11-17T03:20:49.041Z,14.23
2022-11-17T03:23:20.960Z,14.93
2022-11-17T03:25:54.978Z,15.20
2022-11-17T03:28:28.417Z,17.00
2022-11-17T03:31:00.706Z,15.40
2022-11-17T03:33:30.325Z,14.35
2022-11-17T03:36:03.031Z,15.98
2022-11-17T03:38:36.687Z,13.63
2022-11-17T03:41:09.614Z,14.63
2022-11-17T03:43:39.928Z,14.20
2022-11-17T03:46:13.314Z,14.65
2022-11-17T03:48:49.791Z,16.27
2022-11-17T03:51:20.263Z,13.68
2022-11-17T03:53:49.133Z,14.27
2022-11-17T03:56:36.426Z,14.95
2022-11-17T03:59:12.109Z,14.90
2022-11-17T04:01:41.895Z,14.93
2022-11-17T04:04:15.507Z,13.57
2022-11-17T04:06:43.722Z,14.50
2022-11-17T04:09:12.247Z,14.13
2022-11-17T04:12:05.924Z,12.68
2022-11-17T04:14:51.534Z,14.77
2022-11-17T04:17:21.292Z,12.63
2022-11-17T04:19:49.426Z,13.95
2022-11-17T04:22:17.610Z,12.68
2022-11-17T04:24:45.872Z,12.98
2022-11-17T04:27:30.628Z,13.30
2022-11-17T04:29:58.652Z,11.38
2022-11-17T04:32:28.260Z,12.43
2022-11-17T04:34:58.062Z,12.95
2022-11-17T04:37:26.427Z,12.80
2022-11-17T04:39:54.716Z,13.48
2022-11-17T04:42:21.793Z,13.38
2022-11-17T04:44:49.977Z,14.07
2022-11-17T04:47:18.149Z,13.27
2022-11-17T04:49:47.865Z,15.18
2022-11-17T04:52:15.983Z,13.98
2022-11-17T04:54:44.138Z,15.05
2022-11-17T04:57:12.415Z,15.88
2022-11-17T04:59:40.693Z,15.25
2022-11-17T05:02:08.990Z,15.38
2022-11-17T05:04:54.418Z,13.68
2022-11-17T05:07:24.477Z,14.65
2022-11-17T05:09:52.534Z,13.32
2022-11-17T05:12:38.056Z,13.82
2022-11-17T05:15:07.234Z,14.27
2022-11-17T05:17:34.344Z,14.45
2022-11-17T05:20:02.629Z,14.43
2022-11-17T05:22:49.792Z,13.15
2022-11-17T05:25:18.127Z,12.48
2022-11-17T05:27:46.320Z,13.50
2022-11-17T05:30:14.911Z,13.82
2022-11-17T05:32:43.118Z,13.88
2022-11-17T05:35:11.431Z,14.70
2022-11-17T05:37:40.915Z,13.70
2022-11-17T05:40:10.455Z,14.43
2022-11-17T05:42:38.627Z,14.40
2022-11-17T05:45:07.951Z,14.05
2022-11-17T05:47:36.184Z,13.90
2022-11-17T05:50:04.379Z,14.65
2022-11-17T05:52:32.560Z,14.13
2022-11-17T05:55:02.161Z,13.43
2022-11-17T05:57:33.455Z,14.70
2022-11-17T06:00:05.160Z,14.32
2022-11-17T06:02:38.943Z,13.63
2022-11-17T06:05:07.615Z,13.90
2022-11-17T06:07:36.863Z,13.00
2022-11-17T06:10:07.759Z,14.88
2022-11-17T06:12:36.179Z,15.63
2022-11-17T06:15:04.717Z,15.50
2022-11-17T06:17:37.251Z,14.60
2022-11-17T06:20:11.228Z,14.57
2022-11-17T06:22:41.855Z,12.60
2022-11-17T06:25:15.469Z,13.07
2022-11-17T06:27:44.084Z,13.57
2022-11-17T06:30:12.861Z,13.48
2022-11-17T06:32:45.267Z,12.00
2022-11-17T06:35:16.578Z,11.43
2022-11-17T06:37:44.895Z,12.25
2022-11-17T06:40:14.628Z,12.00
2022-11-17T06:43:00.323Z,11.57
2022-11-17T06:45:28.656Z,9.98
2022-11-17T06:47:57.045Z,11.07
2022-11-17T06:50:25.292Z,11.93
2022-11-17T06:52:53.497Z,10.63
2022-11-17T06:55:23.194Z,9.77
2022-11-17T06:57:53.551Z,11.75
2022-11-17T07:00:22.560Z,10.27
2022-11-17T07:02:50.874Z,11.30
2022-11-17T07:05:19.066Z,10.57
2022-11-17T07:07:47.281Z,10.93
2022-11-17T07:10:15.588Z,12.00
2022-11-17T07:12:47.060Z,10.63
2022-11-17T07:17:43.347Z,9.27
2022-11-17T07:20:12.551Z,10.23
2022-11-17T07:22:41.573Z,9.45
2022-11-17T07:25:10.352Z,9.75
2022-11-17T07:27:38.978Z,10.30
2022-11-17T07:30:10.331Z,11.02
2022-11-17T07:32:38.572Z,9.77
2022-11-17T07:35:07.807Z,10.98
2022-11-17T07:37:35.986Z,13.05
2022-11-17T07:40:04.238Z,11.45
2022-11-17T07:42:32.821Z,11.32
2022-11-17T07:45:01.106Z,11.80
2022-11-17T07:47:30.638Z,12.57
2022-11-17T07:49:58.862Z,11.90
2022-11-17T07:52:27.025Z,12.07
2022-11-17T07:54:55.274Z,11.35
2022-11-17T07:57:25.226Z,11.65
2022-11-17T07:59:53.393Z,10.13
2022-11-17T08:02:21.662Z,10.15
2022-11-17T08:04:51.389Z,11.27
2022-11-17T08:07:19.856Z,10.30
2022-11-17T08:09:48.078Z,8.48
2022-11-17T08:12:16.278Z,10.35
2022-11-17T08:14:44.520Z,9.80
2022-11-17T08:17:12.743Z,10.05
2022-11-17T08:19:40.950Z,9.63
2022-11-17T08:22:10.714Z,9.85
2022-11-17T08:24:38.963Z,10.20
2022-11-17T08:27:07.370Z,8.35
2022-11-17T08:29:35.599Z,9.30
2022-11-17T08:32:03.825Z,9.73
2022-11-17T08:34:32.022Z,8.45
2022-11-17T08:37:00.195Z,9.10
2022-11-17T08:39:30.005Z,9.25
2022-11-17T08:41:58.189Z,10.15
2022-11-17T08:44:26.440Z,9.20
2022-11-17T08:46:54.622Z,10.18
2022-11-17T08:49:22.972Z,8.98
2022-11-17T08:51:51.270Z,8.38
2022-11-17T08:54:19.453Z,8.73
2022-11-17T08:56:49.204Z,8.98
2022-11-17T08:59:17.398Z,8.70
2022-11-17T09:01:45.675Z,8.13
2022-11-17T09:04:13.894Z,8.73
2022-11-17T09:06:42.093Z,7.95
2022-11-17T09:09:10.344Z,8.63
2022-11-17T09:11:38.573Z,7.53
2022-11-17T09:14:09.358Z,8.00
2022-11-17T09:16:38.080Z,9.02
2022-11-17T09:19:06.950Z,8.40
2022-11-17T09:21:35.196Z,9.25
2022-11-17T09:24:03.387Z,10.93
2022-11-17T09:26:31.698Z,9.02
2022-11-17T09:29:03.166Z,8.45
2022-11-17T09:34:05.280Z,7.50
2022-11-17T09:36:34.772Z,7.88
2022-11-17T09:39:02.973Z,8.90
2022-11-17T09:41:36.525Z,9.57
2022-11-17T09:44:14.127Z,8.38
2022-11-17T09:47:06.824Z,9.38
2022-11-17T09:49:43.949Z,8.15
2022-11-17T09:52:19.877Z,8.88
2022-11-17T09:54:54.035Z,8.52
2022-11-17T09:57:28.560Z,8.88
2022-11-17T10:00:13.857Z,9.45
2022-11-17T10:02:44.471Z,8.65
2022-11-17T10:05:17.559Z,7.77
2022-11-17T10:07:50.546Z,9.18
2022-11-17T10:10:23.783Z,9.00
2022-11-17T10:12:58.015Z,7.93
2022-11-17T10:15:30.872Z,8.30
2022-11-17T10:18:00.561Z,8.20
2022-11-17T10:20:28.841Z,8.25
2022-11-17T10:22:58.544Z,9.82
2022-11-17T10:25:38.834Z,9.23
2022-11-17T10:28:23.743Z,8.20
2022-11-17T10:30:55.577Z,9.18
2022-11-17T10:33:47.702Z,8.60
2022-11-17T10:36:20.550Z,8.77
2022-11-17T10:38:50.961Z,7.90
2022-11-17T10:41:21.514Z,8.13
2022-11-17T10:43:59.031Z,7.20
2022-11-17T10:46:29.961Z,7.00
2022-11-17T10:49:05.689Z,7.63
2022-11-17T10:51:35.806Z,8.90
2022-11-17T10:54:06.691Z,9.90
2022-11-17T10:56:41.814Z,9.07
2022-11-17T10:59:16.303Z,8.38
2022-11-17T11:01:46.288Z,7.65
2022-11-17T11:04:42.780Z,7.95
2022-11-17T11:07:13.604Z,8.50
2022-11-17T11:09:46.676Z,8.77
2022-11-17T11:12:20.447Z,8.82
2022-11-17T11:14:53.289Z,8.65
2022-11-17T11:17:21.568Z,7.72
2022-11-17T11:19:53.541Z,7.32
2022-11-17T11:22:32.001Z,7.40
2022-11-17T11:25:10.385Z,7.05
2022-11-17T11:28:03.407Z,7.68
2022-11-17T11:30:38.755Z,6.22
2022-11-17T11:33:25.109Z,6.72
2022-11-17T11:36:15.349Z,6.20
2022-11-17T11:39:05.398Z,6.72
2022-11-17T11:41:47.902Z,6.10
2022-11-17T11:44:39.149Z,6.65
2022-11-17T11:47:18.448Z,6.32
2022-11-17T11:49:52.839Z,7.05
2022-11-17T11:52:25.952Z,7.38
2022-11-17T11:54:58.326Z,6.95
2022-11-17T11:57:32.587Z,7.07
2022-11-17T12:00:04.718Z,6.88
2022-11-17T12:02:42.836Z,6.93
2022-11-17T12:05:20.921Z,6.00
2022-11-17T12:07:56.828Z,6.97
2022-11-17T12:10:33.068Z,6.60
2022-11-17T12:13:01.840Z,6.75
2022-11-17T12:15:35.993Z,6.70
2022-11-17T12:18:07.430Z,6.90
2022-11-17T12:23:41.044Z,6.80
2022-11-17T12:26:09.561Z,6.45
2022-11-17T12:28:39.997Z,5.45
2022-11-17T12:31:10.892Z,7.43
2022-11-17T12:34:22.716Z,7.03
2022-11-17T12:37:23.134Z,5.88
2022-11-17T12:40:44.660Z,7.38
2022-11-17T12:43:24.005Z,6.15
2022-11-17T12:46:05.769Z,6.55
2022-11-17T12:51:11.760Z,7.00
2022-11-17T12:53:55.034Z,6.18
2022-11-17T12:56:40.970Z,7.32
2022-11-17T12:59:46.287Z,6.63
2022-11-17T13:02:39.698Z,6.63
2022-11-17T13:05:14.708Z,7.63
2022-11-17T13:07:43.176Z,7.85
2022-11-17T13:10:25.604Z,7.15
2022-11-17T13:13:13.410Z,7.05
2022-11-17T13:15:43.935Z,8.80
2022-11-17T13:18:18.963Z,8.52
2022-11-17T13:20:49.401Z,8.85
2022-11-17T13:23:22.229Z,10.40
2022-11-17T13:25:50.727Z,9.15
2022-11-17T13:28:31.578Z,9.82
2022-11-17T13:31:01.214Z,10.43
2022-11-17T13:33:33.329Z,9.25
2022-11-17T13:36:16.791Z,10.52
2022-11-17T13:38:50.144Z,10.48
2022-11-17T13:41:19.167Z,10.85
2022-11-17T13:43:50.679Z,10.90
2022-11-17T13:48:48.216Z,11.48
2022-11-17T13:51:35.135Z,11.13
2022-11-17T13:54:07.665Z,10.77
2022-11-17T13:56:40.466Z,11.02
2022-11-17T13:59:24.290Z,12.05
2022-11-17T14:02:26.961Z,11.73
2022-11-17T14:05:24.259Z,12.63
2022-11-17T14:07:54.287Z,10.82
2022-11-17T14:10:32.133Z,10.50
2022-11-17T14:13:30.059Z,10.18
2022-11-17T14:16:01.406Z,8.82
2022-11-17T14:18:32.305Z,9.52
2022-11-17T14:21:13.791Z,9.55
2022-11-17T14:26:29.096Z,7.45
2022-11-17T14:29:02.258Z,8.07
2022-11-17T14:31:33.490Z,6.72
2022-11-17T14:34:01.824Z,6.93
2022-11-17T14:36:30.695Z,7.13
2022-11-17T14:38:59.508Z,7.22
2022-11-17T14:41:27.808Z,6.70
2022-11-17T14:43:56.006Z,5.70
2022-11-17T14:46:26.059Z,5.43
2022-11-17T14:48:56.627Z,5.55
2022-11-17T14:51:25.798Z,5.18
2022-11-17T14:53:54.329Z,5.38
2022-11-17T14:56:24.215Z,5.63
2022-11-17T14:58:56.038Z,6.97
2022-11-17T15:01:28.503Z,5.50
2022-11-17T15:04:00.301Z,5.70
2022-11-17T15:06:30.625Z,5.95
2022-11-17T15:09:00.632Z,5.90
2022-11-17T15:11:35.167Z,6.10
2022-11-17T15:14:07.467Z,6.10
2022-11-17T15:16:35.972Z,6.38
2022-11-17T15:19:06.938Z,6.80
2022-11-17T15:21:35.126Z,6.20
2022-11-17T15:24:04.235Z,5.95
2022-11-17T15:26:32.628Z,6.13
2022-11-17T15:29:01.240Z,6.03
2022-11-17T15:31:29.931Z,7.38
2022-11-17T15:33:58.216Z,6.13
2022-11-17T15:36:27.751Z,6.65
2022-11-17T15:38:55.998Z,7.03
2022-11-17T15:41:26.348Z,6.13
2022-11-17T15:43:56.888Z,5.85
2022-11-17T15:46:25.135Z,8.40
2022-11-17T15:48:53.393Z,6.82
2022-11-17T15:51:23.428Z,6.40
2022-11-17T15:53:55.819Z,7.30
2022-11-17T15:56:25.302Z,6.88
2022-11-17T15:58:57.432Z,6.60
2022-11-17T16:01:30.263Z,6.78
2022-11-17T16:04:00.002Z,7.57
2022-11-17T16:06:28.614Z,7.70
2022-11-17T16:08:58.878Z,6.65
2022-11-17T16:11:27.385Z,7.20
2022-11-17T16:13:56.256Z,7.35
2022-11-17T16:16:25.685Z,7.82
2022-11-17T16:18:53.804Z,7.00
2022-11-17T16:21:22.155Z,7.35
2022-11-17T16:23:51.620Z,7.43
2022-11-17T16:26:22.192Z,7.38
2022-11-17T16:28:50.446Z,7.10
2022-11-17T16:31:20.101Z,7.82
2022-11-17T16:33:49.452Z,8.30
2022-11-17T16:36:17.726Z,8.00
2022-11-17T16:39:02.380Z,8.60
2022-11-17T16:41:33.559Z,8.10
2022-11-17T16:44:02.924Z,9.82
2022-11-17T16:46:32.907Z,8.15
2022-11-17T16:49:03.448Z,8.07
2022-11-17T16:51:31.896Z,8.03
2022-11-17T16:54:01.729Z,8.73
2022-11-17T16:56:31.860Z,8.82
2022-11-17T16:59:00.056Z,10.00
2022-11-17T17:01:30.704Z,9.35
2022-11-17T17:04:00.005Z,9.73
2022-11-17T17:06:28.941Z,10.00
2022-11-17T17:08:58.374Z,10.02
2022-11-17T17:11:27.451Z,9.82
2022-11-17T17:13:57.614Z,11.05
2022-11-17T17:16:26.329Z,11.52
2022-11-17T17:18:59.595Z,11.43
2022-11-17T17:21:28.924Z,10.18
2022-11-17T17:23:57.752Z,10.43
2022-11-17T17:26:27.596Z,11.35
2022-11-17T17:28:58.989Z,12.30
2022-11-17T17:31:30.459Z,12.45
2022-11-17T17:36:28.867Z,12.80
2022-11-17T17:38:58.857Z,11.77
2022-11-17T17:41:29.366Z,12.38
2022-11-17T17:44:00.517Z,12.63
2022-11-17T17:46:31.349Z,12.60
2022-11-17T17:48:59.751Z,12.63
2022-11-17T17:51:29.528Z,13.00
2022-11-17T17:54:01.173Z,15.15
2022-11-17T17:56:30.565Z,16.10
2022-11-17T17:59:00.697Z,14.02
2022-11-17T18:01:30.122Z,15.48
2022-11-17T18:04:04.593Z,15.60
2022-11-17T18:06:37.464Z,14.60
2022-11-17T18:09:06.443Z,16.60
2022-11-17T18:11:35.823Z,15.23
2022-11-17T18:14:05.487Z,17.38
2022-11-17T18:16:35.737Z,17.83
2022-11-17T18:19:05.471Z,17.92
2022-11-17T18:21:34.185Z,18.60
2022-11-17T18:24:03.341Z,17.35
2022-11-17T18:26:33.036Z,17.48
2022-11-17T18:29:03.044Z,16.30
2022-11-17T18:31:35.466Z,14.82
2022-11-17T18:34:06.179Z,14.57
2022-11-17T18:36:34.856Z,14.57
2022-11-17T18:39:03.739Z,14.48
2022-11-17T18:41:34.059Z,15.23
2022-11-17T18:44:02.711Z,16.85
2022-11-17T18:46:33.716Z,15.90
2022-11-17T18:49:02.163Z,16.45
2022-11-17T18:51:31.823Z,14.77
2022-11-17T18:54:02.056Z,14.93
2022-11-17T18:56:33.472Z,14.73
2022-11-17T19:01:30.919Z,13.63
2022-11-17T19:04:01.998Z,14.50
2022-11-17T19:06:30.634Z,16.50
2022-11-17T19:08:59.745Z,16.05
2022-11-17T19:11:33.021Z,13.98
2022-11-17T19:14:03.067Z,17.10
2022-11-17T19:16:32.055Z,14.50
2022-11-17T19:19:01.711Z,15.27
2022-11-17T19:21:31.848Z,15.48
2022-11-17T19:24:04.383Z,14.68
2022-11-17T19:26:33.702Z,17.48
2022-11-17T19:29:03.965Z,15.10
2022-11-17T19:31:32.711Z,15.68
2022-11-17T19:34:02.266Z,16.27
2022-11-17T19:36:32.441Z,16.08
2022-11-17T19:39:02.168Z,15.70
2022-11-17T19:41:32.253Z,15.98
2022-11-17T19:44:03.978Z,16.15
2022-11-17T19:46:33.453Z,15.88
2022-11-17T19:49:03.701Z,17.60
2022-11-17T19:51:33.742Z,15.02
2022-11-17T19:54:04.278Z,16.80
2022-11-17T19:56:33.344Z,14.68
2022-11-17T19:59:01.618Z,17.92
2022-11-17T20:01:30.801Z,16.23
2022-11-17T20:04:00.275Z,16.20
2022-11-17T20:06:35.487Z,15.13
2022-11-17T20:09:08.276Z,15.43
2022-11-17T20:11:36.895Z,15.20
2022-11-17T20:14:05.448Z,15.07
2022-11-17T20:16:33.703Z,16.17
2022-11-17T20:19:03.237Z,15.52
2022-11-17T20:21:33.773Z,15.00
2022-11-17T20:24:02.438Z,16.37
2022-11-17T20:26:32.152Z,15.45
2022-11-17T20:29:01.084Z,15.25
2022-11-17T20:31:30.798Z,15.60
2022-11-17T20:34:00.882Z,14.68
2022-11-17T20:36:30.937Z,13.95
2022-11-17T20:39:02.380Z,13.18
2022-11-17T20:41:31.393Z,14.05
2022-11-17T20:44:01.865Z,13.35
2022-11-17T20:46:30.555Z,13.23
2022-11-17T20:48:58.742Z,13.20
2022-11-17T20:51:27.220Z,13.80
2022-11-17T20:53:55.479Z,14.63
2022-11-17T20:56:25.144Z,13.88
2022-11-17T20:58:53.411Z,13.40
2022-11-17T21:01:24.064Z,13.80
2022-11-17T21:03:52.634Z,12.18
2022-11-17T21:06:23.210Z,12.55
2022-11-17T21:08:52.029Z,12.73
2022-11-17T21:11:39.391Z,13.40
2022-11-17T21:14:11.193Z,12.95
2022-11-17T21:16:41.025Z,13.02
2022-11-17T21:19:09.642Z,13.38
2022-11-17T21:21:37.742Z,13.48
2022-11-17T21:24:06.539Z,13.43
2022-11-17T21:26:35.090Z,13.38
2022-11-17T21:29:06.630Z,13.00
2022-11-17T21:31:36.752Z,14.57
2022-11-17T21:34:06.894Z,14.93
2022-11-17T21:36:36.689Z,14.57
2022-11-17T21:39:05.876Z,13.30
2022-11-17T21:41:36.350Z,13.18
2022-11-17T21:44:04.949Z,13.48
2022-11-17T21:46:35.086Z,13.75
2022-11-17T21:49:04.985Z,14.32
2022-11-17T21:51:34.582Z,14.00
2022-11-17T21:54:04.553Z,13.95
2022-11-17T21:56:32.826Z,14.73
2022-11-17T21:59:02.726Z,12.98
2022-11-17T22:01:31.457Z,13.98
2022-11-17T22:03:59.767Z,12.88
2022-11-17T22:06:29.702Z,13.73
2022-11-17T22:08:59.384Z,13.60
2022-11-17T22:11:38.992Z,14.05
2022-11-17T22:14:10.553Z,14.25
2022-11-17T22:16:40.418Z,14.90
2022-11-17T22:19:09.343Z,16.02
2022-11-17T22:21:40.107Z,14.75
2022-11-17T22:24:10.501Z,14.73
2022-11-17T22:26:41.018Z,15.57
2022-11-17T22:29:13.120Z,15.53
2022-11-17T22:31:41.253Z,15.15
2022-11-17T22:34:09.517Z,14.15
2022-11-17T22:36:39.201Z,15.32
2022-11-17T22:39:07.577Z,16.00
2022-11-17T22:41:35.726Z,16.35
2022-11-17T22:44:04.083Z,15.73
2022-11-17T22:46:32.238Z,15.57
2022-11-17T22:49:00.401Z,15.90
2022-11-17T22:51:45.562Z,16.42
2022-11-17T22:54:15.188Z,15.60
2022-11-17T22:56:43.587Z,16.40
2022-11-17T22:59:11.768Z,17.20
2022-11-17T23:01:40.018Z,17.85
2022-11-17T23:04:08.308Z,17.00
2022-11-17T23:06:36.536Z,16.58
2022-11-17T23:09:04.784Z,17.35
2022-11-17T23:11:38.296Z,16.42
2022-11-17T23:14:07.676Z,17.00
2022-11-17T23:16:36.085Z,15.43
2022-11-17T23:19:05.583Z,15.85
2022-11-17T23:21:33.798Z,15.50
2022-11-17T23:24:02.063Z,14.85
2022-11-17T23:26:30.267Z,13.82
2022-11-17T23:28:59.969Z,14.02
2022-11-17T23:31:28.615Z,14.20
2022-11-17T23:33:56.970Z,11.88
2022-11-17T23:36:25.744Z,10.63
2022-11-17T23:38:56.341Z,11.07
2022-11-17T23:41:24.565Z,10.27
2022-11-17T23:43:54.252Z,10.05
2022-11-17T23:46:25.368Z,9.90
2022-11-17T23:48:54.135Z,8.75
2022-11-17T23:51:23.979Z,9.48
2022-11-17T23:53:52.422Z,9.10
2022-11-17T23:56:21.227Z,9.77
2022-11-17T23:58:49.883Z,9.40
